Decoded Metar for KPSF (PITTSFIELD in MA, USA) (IATA:PSF) | Meteo·Mobile Aviation Weather
aviador You're here:

KPSF Decoded Metar

PITTSFIELD in MA, USA
Report Time2018-12-17 15:30:00
UTC Time2018-12-17 15:43:04
Flight Rules ifr IFR
Wind290° at 09 kt
W.Decomp.*RWY 32: 8.7 kt HW 2.3 kt LCW
RWY 26: 6.4 kt HW 6.4 kt RCW
W.Rank290° ranks 1
Current wind is below 290° avg. (9.9)
Visibility9999 m
Phenomena:N/A
Clouds:Overcast 009 Hf
Expected CloudBase > 800 ft AGL from Temp-Dew spread
Ceiling900 ft
Temp01°C (ISA -12)
Dew Point-1°C (87% RH)
AAT-4.4°C
QNH1003 hPa
Density Alt167 ft
Elevation1,165 ft
Report Wrong Elevation
Raw Report
KPSF 171530Z AUTO 29009KT 8SM OVC009 01/M01 A2963 RMK AO2 SNB08E29
CIG 007V014 P0000 T00111011=

Extra information for KPSF:More info

Metar Taf Metar & Taf Last 4 Metars F.Rules Stats Wind Profile Meteogram Temp Stats Airport Information Weather charts Add Link Nearby VenuesMetar ALERT Operation Metar Decoded Social comments

AIRNAV info for KPSF